Luminous Kobe-2 — JJ3868 — position and weather

sailwx.info

Track history (hours):
 
Tides and Currents Weather Stations Pressure Air Temp Water Temp Dewpoint Dewpoint Depression Visibility Wind Speed Wind Dir Waves Ship Positions

Luminous Kobe-2

Last reported at 2017-Nov-20 00:19 UTC. Time now 2017-Nov-22 14:43 UTC.
Position N 34°41' E 135°11'.

Length 105 m; draft 4.4 m.

Type: Passenger vessel. MMSI: 431000469.

Date/timePositionNaut miles runAvg speedWind from/ knotsBaromVisibWave heightAir tempDewpointWater temp
2017-Nov-20 00:19N 34°41' E 135°11'0 0.0
2017-Nov-19 23:55N 34°41' E 135°11'0 0.0
2017-Nov-19 23:25N 34°41' E 135°11'0 0.0
2017-Nov-19 22:37N 34°41' E 135°11'0 0.0
2017-Nov-19 22:25N 34°41' E 135°11'0 0.0
2017-Nov-19 21:55N 34°41' E 135°11'0 0.0
2017-Nov-19 21:25N 34°41' E 135°11'0 0.0
2017-Nov-19 20:55N 34°41' E 135°11'0 0.0
2017-Nov-19 20:25N 34°41' E 135°11'0 0.0
2017-Nov-19 19:55N 34°41' E 135°11'0 0.0
2017-Nov-19 19:25N 34°41' E 135°11'0 0.0
2017-Nov-19 18:43N 34°41' E 135°11'0 0.0
2017-Nov-19 18:25N 34°41' E 135°11'0 0.0
2017-Nov-19 17:55N 34°41' E 135°11'0 0.0
2017-Nov-19 17:25N 34°41' E 135°11'0 0.0
2017-Nov-19 16:55N 34°41' E 135°11'0 0.0
2017-Nov-19 16:25N 34°41' E 135°11'0 0.0
2017-Nov-19 15:55N 34°41' E 135°11'0 0.0
2017-Nov-19 15:25N 34°41' E 135°11'0 0.0
2017-Nov-19 14:55N 34°41' E 135°11'0 0.0
2017-Nov-19 14:25N 34°41' E 135°11'0 0.0
2017-Nov-19 13:43N 34°41' E 135°11'0 0.0
2017-Nov-19 13:25N 34°41' E 135°11'0 0.0
2017-Nov-19 12:55N 34°41' E 135°11'0 0.0
2017-Nov-19 12:25N 34°41' E 135°11'1 3.1
2017-Nov-19 12:00N 34°40' E 135°11'714.0
2017-Nov-19 11:30N 34°35' E 135°06'612.4
2017-Nov-19 11:00N 34°37' E 134°59'714.3
2017-Nov-19 10:30N 34°37' E 135°07'510.2
2017-Nov-19 10:00N 34°41' E 135°11'0 0.0
2017-Nov-19 09:25N 34°41' E 135°11'0 0.0
2017-Nov-19 08:57N 34°41' E 135°11'3 5.6
2017-Nov-19 08:30N 34°38' E 135°11'4 7.2
2017-Nov-19 08:00N 34°37' E 135°07'611.5
2017-Nov-19 07:30N 34°37' E 135°14'4 8.3
2017-Nov-19 07:00N 34°41' E 135°11'0 0.0
2017-Nov-19 06:27N 34°41' E 135°11'0 0.0
2017-Nov-19 05:57N 34°41' E 135°11'0 0.0
2017-Nov-19 05:27N 34°41' E 135°11'0 0.0
2017-Nov-19 04:57N 34°41' E 135°11'3 6.1
2017-Nov-19 04:31N 34°38' E 135°11'3 6.8
2017-Nov-19 04:00N 34°37' E 135°08'510.0
2017-Nov-19 03:30N 34°37' E 135°13'4 6.8
2017-Nov-19 02:56N 34°41' E 135°11'0 0.0
2017-Nov-19 02:26N 34°41' E 135°11'0 0.0
2017-Nov-19 01:50N 34°41' E 135°11'0 0.0
2017-Nov-19 01:26N 34°41' E 135°11'0 0.0
2017-Nov-19 00:50N 34°41' E 135°11'0 0.0
2017-Nov-19 00:26N 34°41' E 135°11'0 0.0
2017-Nov-18 23:56N 34°41' E 135°11'0 0.0
2017-Nov-18 23:26N 34°41' E 135°11'0 0.0
2017-Nov-18 22:44N 34°41' E 135°11'0 0.0
2017-Nov-18 22:14N 34°41' E 135°11'0 0.0
2017-Nov-18 21:56N 34°41' E 135°11'0 0.0
2017-Nov-18 21:26N 34°41' E 135°11'0 0.0
2017-Nov-18 20:56N 34°41' E 135°11'0 0.0
2017-Nov-18 20:26N 34°41' E 135°11'0 0.0
2017-Nov-18 19:44N 34°41' E 135°11'0 0.0
2017-Nov-18 19:20N 34°41' E 135°11'0 0.0
2017-Nov-18 18:56N 34°41' E 135°11'0 0.0
2017-Nov-18 18:26N 34°41' E 135°11'0 0.0
2017-Nov-18 17:56N 34°41' E 135°11'0 0.0
2017-Nov-18 17:26N 34°41' E 135°11'0 0.0
2017-Nov-18 16:56N 34°41' E 135°11'0 0.0
2017-Nov-18 16:26N 34°41' E 135°11'0 0.0
2017-Nov-18 15:50N 34°41' E 135°11'0 0.0
2017-Nov-18 15:26N 34°41' E 135°11'0 0.0
2017-Nov-18 14:50N 34°41' E 135°11'0 0.0
2017-Nov-18 14:26N 34°41' E 135°11'0 0.0
2017-Nov-18 13:56N 34°41' E 135°11'0 0.0
2017-Nov-18 13:20N 34°41' E 135°11'0 0.0
2017-Nov-18 12:56N 34°41' E 135°11'0 0.0
2017-Nov-18 12:26N 34°41' E 135°11'1 2.3
2017-Nov-18 12:00N 34°40' E 135°12'611.3
2017-Nov-18 11:30N 34°36' E 135°07'612.1
2017-Nov-18 11:00N 34°37' E 134°59'713.2
2017-Nov-18 10:30N 34°37' E 135°07'5 9.7
2017-Nov-18 09:59N 34°41' E 135°11'0 0.0
2017-Nov-18 09:31N 34°41' E 135°11'0 0.0
2017-Nov-18 09:00N 34°41' E 135°11'3 5.4
2017-Nov-18 08:31N 34°38' E 135°11'4 7.4
2017-Nov-18 08:00N 34°37' E 135°06'611.5
2017-Nov-18 07:31N 34°37' E 135°13'4 8.0
2017-Nov-18 07:00N 34°41' E 135°11'0 0.0
2017-Nov-18 06:20N 34°41' E 135°11'0 0.0
2017-Nov-18 05:56N 34°41' E 135°11'0 0.0
2017-Nov-18 05:26N 34°41' E 135°11'0 0.0
2017-Nov-18 04:56N 34°41' E 135°11'2 5.6
2017-Nov-18 04:30N 34°38' E 135°11'4 7.2
2017-Nov-18 04:00N 34°37' E 135°07'4 8.1
2017-Nov-18 03:30N 34°37' E 135°12'3 6.8
2017-Nov-18 03:00N 34°41' E 135°11'0 0.0
2017-Nov-18 02:25N 34°41' E 135°11'0 0.0
2017-Nov-18 01:49N 34°41' E 135°11'0 0.0
2017-Nov-18 01:25N 34°41' E 135°11'0 0.0
2017-Nov-18 00:55N 34°41' E 135°11'0 0.0
2017-Nov-18 00:25N 34°41' E 135°11'0 0.0
2017-Nov-17 23:55N 34°41' E 135°11'0 0.0
2017-Nov-17 23:19N 34°41' E 135°11'0 0.0
2017-Nov-17 22:55N 34°41' E 135°11'0 0.0
2017-Nov-17 22:25N 34°41' E 135°11'0 0.0
2017-Nov-17 21:37N 34°41' E 135°11'0 0.0
2017-Nov-17 21:19N 34°41' E 135°11'0 0.0
2017-Nov-17 20:55N 34°41' E 135°11'0 0.0
2017-Nov-17 20:19N 34°41' E 135°11'0 0.0
2017-Nov-17 19:55N 34°41' E 135°11'0 0.0
2017-Nov-17 19:25N 34°41' E 135°11'0 0.0
2017-Nov-17 18:55N 34°41' E 135°11'0 0.0
2017-Nov-17 18:25N 34°41' E 135°11'0 0.0
2017-Nov-17 17:55N 34°41' E 135°11'0 0.0
2017-Nov-17 17:25N 34°41' E 135°11'0 0.0
2017-Nov-17 16:55N 34°41' E 135°11'0 0.0
2017-Nov-17 16:25N 34°41' E 135°11'0 0.0
2017-Nov-17 15:55N 34°41' E 135°11'0 0.0
2017-Nov-17 15:25N 34°41' E 135°11'0 0.0
2017-Nov-17 14:55N 34°41' E 135°11'0 0.0
2017-Nov-17 14:25N 34°41' E 135°11'0 0.0
2017-Nov-17 13:55N 34°41' E 135°11'0 0.0
2017-Nov-17 13:25N 34°41' E 135°11'0 0.0
2017-Nov-17 12:55N 34°41' E 135°11'0 0.0
2017-Nov-17 12:16N 34°41' E 135°11'1 3.9
2017-Nov-17 12:00N 34°40' E 135°11'612.4
2017-Nov-17 11:30N 34°35' E 135°06'712.5
2017-Nov-17 10:59N 34°37' E 134°59'715.2
2017-Nov-17 10:30N 34°37' E 135°07'510.1
2017-Nov-17 10:00N 34°41' E 135°11'0 0.0
2017-Nov-17 09:19N 34°41' E 135°11'1 3.5
2017-Nov-17 09:00N 34°40' E 135°11'3 6.8
2017-Nov-17 08:30N 34°38' E 135°08'4 8.2
2017-Nov-17 08:00N 34°41' E 135°11'0 0.0
2017-Nov-17 07:26N 34°41' E 135°11'0 0.0
2017-Nov-17 06:44N 34°41' E 135°11'0 0.0
2017-Nov-17 06:26N 34°41' E 135°11'0 0.0
2017-Nov-17 05:44N 34°41' E 135°11'0 0.0
2017-Nov-17 05:26N 34°41' E 135°11'0 0.0
2017-Nov-17 04:56N 34°41' E 135°11'3 6.3
2017-Nov-17 04:30N 34°38' E 135°11'4 7.0
2017-Nov-17 04:00N 34°36' E 135°07'510.5
2017-Nov-17 03:31N 34°37' E 135°13'4 7.8
2017-Nov-17 02:59N 34°41' E 135°11'0 0.0
2017-Nov-17 02:28N 34°41' E 135°11'0 0.0
2017-Nov-17 01:58N 34°41' E 135°11'0 0.0
2017-Nov-17 01:28N 34°41' E 135°11'0 0.0
2017-Nov-17 00:52N 34°41' E 135°11'0 0.0
2017-Nov-17 00:22N 34°41' E 135°11'0 0.0
2017-Nov-16 23:58N 34°41' E 135°11'0 0.0
2017-Nov-16 23:28N 34°41' E 135°11'0 0.0
2017-Nov-16 22:52N 34°41' E 135°11'0 0.0
2017-Nov-16 22:28N 34°41' E 135°11'0 0.0
2017-Nov-16 21:58N 34°41' E 135°11'0 0.0
2017-Nov-16 21:28N 34°41' E 135°11'0 0.0
2017-Nov-16 20:58N 34°41' E 135°11'0 0.0
2017-Nov-16 20:28N 34°41' E 135°11'0 0.0
2017-Nov-16 19:52N 34°41' E 135°11'0 0.0
2017-Nov-16 19:28N 34°41' E 135°11'0 0.0
2017-Nov-16 18:58N 34°41' E 135°11'0 0.0
2017-Nov-16 18:28N 34°41' E 135°11'0 0.0
2017-Nov-16 17:58N 34°41' E 135°11'0 0.0
2017-Nov-16 17:28N 34°41' E 135°11'0 0.0
2017-Nov-16 16:46N 34°41' E 135°11'0 0.0
2017-Nov-16 16:22N 34°41' E 135°11'0 0.0
2017-Nov-16 15:58N 34°41' E 135°11'0 0.0
2017-Nov-16 15:28N 34°41' E 135°11'0 0.0
2017-Nov-16 14:40N 34°41' E 135°11'0 0.0
2017-Nov-16 14:28N 34°41' E 135°11'0 0.0
2017-Nov-16 13:52N 34°41' E 135°11'0 0.0
2017-Nov-16 13:28N 34°41' E 135°11'0 0.0
2017-Nov-16 12:58N 34°41' E 135°11'0 0.0
2017-Nov-16 12:28N 34°41' E 135°11'1 2.3
2017-Nov-16 12:00N 34°40' E 135°11'612.5
2017-Nov-16 11:30N 34°35' E 135°06'612.3
2017-Nov-16 11:00N 34°37' E 134°59'714.0
2017-Nov-16 10:30N 34°37' E 135°07'510.0
2017-Nov-16 10:00N 34°41' E 135°11'0 0.0
2017-Nov-16 09:30N 34°41' E 135°11'1 2.2
2017-Nov-16 09:00N 34°40' E 135°11'4 7.8
2017-Nov-16 08:30N 34°38' E 135°07'5 9.1
2017-Nov-16 08:00N 34°41' E 135°11'0 0.0
2017-Nov-16 07:29N 34°41' E 135°11'0 0.0
2017-Nov-16 06:59N 34°41' E 135°11'0 0.0
2017-Nov-16 06:29N 34°41' E 135°11'0 0.0
2017-Nov-16 05:59N 34°41' E 135°11'0 0.0
2017-Nov-16 05:17N 34°41' E 135°11'0 0.0
2017-Nov-16 04:59N 34°41' E 135°11'3 5.7
2017-Nov-16 04:30N 34°38' E 135°11'3 6.0
2017-Nov-16 04:00N 34°37' E 135°08'5 9.2
2017-Nov-16 03:30N 34°37' E 135°13'4 8.0
2017-Nov-16 03:00N 34°41' E 135°11'0 0.0
2017-Nov-16 02:25N 34°41' E 135°11'0 0.0
2017-Nov-16 01:55N 34°41' E 135°11'0 0.0
2017-Nov-16 01:25N 34°41' E 135°11'0 0.0
2017-Nov-16 00:55N 34°41' E 135°11'0 0.0
2017-Nov-16 00:25N 34°41' E 135°11'0 0.0
2017-Nov-15 23:55N 34°41' E 135°11'0 0.0
2017-Nov-15 23:25N 34°41' E 135°11'0 0.0
2017-Nov-15 22:55N 34°41' E 135°11'0 0.0
2017-Nov-15 22:25N 34°41' E 135°11'0 0.0
2017-Nov-15 21:49N 34°41' E 135°11'0 0.0
2017-Nov-15 21:25N 34°41' E 135°11'0 0.0
2017-Nov-15 20:49N 34°41' E 135°11'0 0.0
2017-Nov-15 20:25N 34°41' E 135°11'0 0.0
2017-Nov-15 19:49N 34°41' E 135°11'0 0.0
2017-Nov-15 19:25N 34°41' E 135°11'0 0.0
2017-Nov-15 18:55N 34°41' E 135°11'0 0.0
2017-Nov-15 18:25N 34°41' E 135°11'0 0.0
2017-Nov-15 17:55N 34°41' E 135°11'0 0.0
2017-Nov-15 17:25N 34°41' E 135°11'0 0.0
2017-Nov-15 16:55N 34°41' E 135°11'0 0.0
2017-Nov-15 16:25N 34°41' E 135°11'0 0.0
2017-Nov-15 15:55N 34°41' E 135°11'0 0.0
2017-Nov-15 15:25N 34°41' E 135°11'0 0.0
2017-Nov-15 14:49N 34°41' E 135°11'0 0.0
2017-Nov-15 14:25N 34°41' E 135°11'0 0.0
2017-Nov-15 13:55N 34°41' E 135°11'0 0.0
2017-Nov-15 13:25N 34°41' E 135°11'0 0.0
2017-Nov-15 12:55N 34°41' E 135°11'0 0.0
2017-Nov-15 12:25N 34°41' E 135°11'1 3.2
2017-Nov-15 12:00N 34°39' E 135°11'612.0
2017-Nov-15 11:30N 34°35' E 135°06'610.2
2017-Nov-15 10:57N 34°38' E 134°60'614.2
2017-Nov-15 10:31N 34°37' E 135°07'510.1
2017-Nov-15 10:00N 34°41' E 135°11'0 0.0
2017-Nov-15 09:30N 34°41' E 135°11'1 2.0
2017-Nov-15 09:00N 34°40' E 135°12'4 7.9
2017-Nov-15 08:30N 34°38' E 135°08'4 8.8
2017-Nov-15 08:00N 34°41' E 135°11'0 0.0
2017-Nov-15 07:17N 34°41' E 135°11'0 0.0
2017-Nov-15 06:59N 34°41' E 135°11'0 0.0
2017-Nov-15 06:29N 34°41' E 135°11'0 0.0
2017-Nov-15 05:59N 34°41' E 135°11'0 0.0
2017-Nov-15 05:29N 34°41' E 135°11'0 0.0
2017-Nov-15 04:59N 34°41' E 135°11'3 5.6
2017-Nov-15 04:30N 34°38' E 135°11'1 2.8
2017-Nov-15 04:00N 34°37' E 135°10'3 5.6
2017-Nov-15 03:30N 34°37' E 135°14'4 7.2
2017-Nov-15 02:58N 34°41' E 135°11'0 0.0
2017-Nov-15 02:22N 34°41' E 135°11'0 0.0
2017-Nov-15 01:58N 34°41' E 135°11'0 0.0
2017-Nov-15 01:28N 34°41' E 135°11'0 0.0
2017-Nov-15 00:46N 34°41' E 135°11'0 0.0
2017-Nov-15 00:28N 34°41' E 135°11'0 0.0
2017-Nov-14 23:58N 34°41' E 135°11'0 0.0
2017-Nov-14 23:28N 34°41' E 135°11'0 0.0
2017-Nov-14 22:58N 34°41' E 135°11'0 0.0
2017-Nov-14 22:28N 34°41' E 135°11'0 0.0
2017-Nov-14 21:58N 34°41' E 135°11'0 0.0
2017-Nov-14 21:22N 34°41' E 135°11'0 0.0
2017-Nov-14 20:52N 34°41' E 135°11'0 0.0
2017-Nov-14 20:28N 34°41' E 135°11'0 0.0
2017-Nov-14 19:58N 34°41' E 135°11'0 0.0
2017-Nov-14 19:22N 34°41' E 135°11'0 0.0
2017-Nov-14 18:58N 34°41' E 135°11'0 0.0
2017-Nov-14 18:28N 34°41' E 135°11'0 0.0
2017-Nov-14 17:52N 34°41' E 135°11'0 0.0
2017-Nov-14 17:28N 34°41' E 135°11'0 0.0
2017-Nov-14 16:52N 34°41' E 135°11'0 0.0
2017-Nov-14 16:28N 34°41' E 135°11'0 0.0
2017-Nov-14 15:58N 34°41' E 135°11'0 0.0
2017-Nov-14 15:28N 34°41' E 135°11'0 0.0
2017-Nov-14 14:58N 34°41' E 135°11'0 0.0
2017-Nov-14 14:16N 34°41' E 135°11'0 0.0
2017-Nov-14 13:58N 34°41' E 135°11'0 0.0
2017-Nov-14 13:28N 34°41' E 135°11'0 0.0
2017-Nov-14 12:52N 34°41' E 135°11'0 0.0
2017-Nov-14 12:28N 34°41' E 135°11'1 2.3
2017-Nov-14 12:00N 34°40' E 135°11'612.0
2017-Nov-14 11:30N 34°35' E 135°06'713.3
2017-Nov-14 11:00N 34°38' E 134°59'714.4
2017-Nov-14 10:30N 34°37' E 135°07'5 9.9
2017-Nov-14 10:00N 34°41' E 135°11'0 0.0
2017-Nov-14 09:28N 34°41' E 135°11'1 2.4
2017-Nov-14 09:00N 34°40' E 135°11'4 7.7
2017-Nov-14 08:30N 34°38' E 135°08'4 9.0
2017-Nov-14 08:00N 34°41' E 135°11'0 0.0
2017-Nov-14 07:29N 34°41' E 135°11'0 0.0
2017-Nov-14 06:59N 34°41' E 135°11'0 0.0
2017-Nov-14 06:29N 34°41' E 135°11'0 0.0
2017-Nov-14 05:59N 34°41' E 135°11'0 0.0
2017-Nov-14 05:29N 34°41' E 135°11'0 0.0
2017-Nov-14 04:59N 34°41' E 135°11'3 5.8
2017-Nov-14 04:30N 34°38' E 135°11'4 8.4
2017-Nov-14 04:00N 34°37' E 135°06'612.2
2017-Nov-14 03:30N 34°37' E 135°13'4 8.3
2017-Nov-14 03:00N 34°41' E 135°11'0 0.0
2017-Nov-14 02:26N 34°41' E 135°11'0 0.0
2017-Nov-14 01:44N 34°41' E 135°11'0 0.0
2017-Nov-14 01:26N 34°41' E 135°11'0 0.0
2017-Nov-14 00:56N 34°41' E 135°11'0 0.0
2017-Nov-14 00:26N 34°41' E 135°11'0 0.0
2017-Nov-13 23:56N 34°41' E 135°11'0 0.0
2017-Nov-13 23:26N 34°41' E 135°11'0 0.0
2017-Nov-13 22:44N 34°41' E 135°11'0 0.0
2017-Nov-13 22:26N 34°41' E 135°11'0 0.0
2017-Nov-13 21:56N 34°41' E 135°11'0 0.0
2017-Nov-13 01:56N 34°41' E 135°11'0 0.0
2017-Nov-13 01:26N 34°41' E 135°11'0 0.0
2017-Nov-13 00:32N 34°41' E 135°11'0 0.1
2017-Nov-13 00:26N 34°41' E 135°11'0 0.0
2017-Nov-12 23:50N 34°41' E 135°11'0 0.0
2017-Nov-12 23:26N 34°41' E 135°11'0 0.0
2017-Nov-12 22:50N 34°41' E 135°11'0 0.0
2017-Nov-12 22:26N 34°41' E 135°11'0 0.0
2017-Nov-12 21:56N 34°41' E 135°11'0 0.0
2017-Nov-12 21:20N 34°41' E 135°11'0 0.0
2017-Nov-12 20:56N 34°41' E 135°11'0 0.0
2017-Nov-12 20:26N 34°41' E 135°11'0 0.0
2017-Nov-12 19:50N 34°41' E 135°11'0 0.0
2017-Nov-12 19:26N 34°41' E 135°11'0 0.0
2017-Nov-12 18:56N 34°41' E 135°11'0 0.0
2017-Nov-12 18:20N 34°41' E 135°11'0 0.0
2017-Nov-12 17:56N 34°41' E 135°11'0 0.0
2017-Nov-12 17:26N 34°41' E 135°11'0 0.0
2017-Nov-12 16:56N 34°41' E 135°11'0 0.0
2017-Nov-12 16:26N 34°41' E 135°11'0 0.0
2017-Nov-12 15:56N 34°41' E 135°11'0 0.0
2017-Nov-12 15:26N 34°41' E 135°11'0 0.0
2017-Nov-12 14:56N 34°41' E 135°11'0 0.0
2017-Nov-12 14:26N 34°41' E 135°11'0 0.0
2017-Nov-12 13:56N 34°41' E 135°11'0 0.0
2017-Nov-12 13:14N 34°41' E 135°11'0 0.0
2017-Nov-12 12:56N 34°41' E 135°11'0 0.0
2017-Nov-12 12:26N 34°41' E 135°11'1 2.1
2017-Nov-12 12:00N 34°40' E 135°11'611.3
2017-Nov-12 11:31N 34°36' E 135°07'612.7
2017-Nov-12 11:00N 34°38' E 134°59'713.7
2017-Nov-12 10:30N 34°37' E 135°07'510.1
2017-Nov-12 10:00N 34°41' E 135°11'0 0.0
2017-Nov-12 09:28N 34°41' E 135°11'0 0.0
2017-Nov-12 08:58N 34°41' E 135°11'3 6.3
2017-Nov-12 08:30N 34°38' E 135°11'3 6.6
2017-Nov-12 08:00N 34°37' E 135°07'510.4
2017-Nov-12 07:30N 34°37' E 135°13'4 7.8
2017-Nov-12 07:00N 34°41' E 135°11'0 0.0
2017-Nov-12 06:19N 34°41' E 135°11'0 0.0
2017-Nov-12 05:55N 34°41' E 135°11'0 0.0
2017-Nov-12 05:19N 34°41' E 135°11'0 0.0
2017-Nov-12 04:55N 34°41' E 135°11'3 6.2
2017-Nov-12 04:30N 34°38' E 135°11'4 7.6
2017-Nov-12 04:00N 34°37' E 135°07'5 9.8
2017-Nov-12 03:30N 34°37' E 135°13'4 7.5
2017-Nov-12 03:00N 34°41' E 135°11'0 0.0
2017-Nov-12 02:21N 34°41' E 135°11'0 0.0
2017-Nov-12 01:57N 34°41' E 135°11'0 0.0
2017-Nov-12 01:27N 34°41' E 135°11'0 0.0
2017-Nov-12 00:51N 34°41' E 135°11'0 0.0
2017-Nov-12 00:27N 34°41' E 135°11'0 0.0
2017-Nov-11 23:57N 34°41' E 135°11'0 0.0
2017-Nov-11 23:27N 34°41' E 135°11'0 0.0
2017-Nov-11 22:57N 34°41' E 135°11'0 0.0
2017-Nov-11 22:27N 34°41' E 135°11'0 0.0
2017-Nov-11 21:51N 34°41' E 135°11'0 0.0
2017-Nov-11 21:15N 34°41' E 135°11'0 0.0
2017-Nov-11 20:57N 34°41' E 135°11'0 0.0
2017-Nov-11 20:27N 34°41' E 135°11'0 0.0
2017-Nov-11 19:57N 34°41' E 135°11'0 0.0
2017-Nov-11 19:27N 34°41' E 135°11'0 0.0
2017-Nov-11 18:57N 34°41' E 135°11'0 0.0
2017-Nov-11 18:27N 34°41' E 135°11'0 0.0
2017-Nov-11 17:57N 34°41' E 135°11'0 0.0
2017-Nov-11 17:15N 34°41' E 135°11'0 0.0
2017-Nov-11 16:51N 34°41' E 135°11'0 0.0
2017-Nov-11 16:21N 34°41' E 135°11'0 0.0
2017-Nov-11 15:57N 34°41' E 135°11'0 0.0
2017-Nov-11 15:27N 34°41' E 135°11'0 0.0
2017-Nov-11 14:51N 34°41' E 135°11'0 0.0
2017-Nov-11 14:21N 34°41' E 135°11'0 0.0
2017-Nov-11 13:51N 34°41' E 135°11'0 0.0
2017-Nov-11 13:27N 34°41' E 135°11'0 0.0
2017-Nov-11 12:57N 34°41' E 135°11'0 0.0
2017-Nov-11 12:21N 34°41' E 135°11'1 3.3
2017-Nov-11 12:00N 34°40' E 135°11'714.5
2017-Nov-11 11:30N 34°35' E 135°05'4 8.7
2017-Nov-11 11:00N 34°37' E 135°01'612.5
2017-Nov-11 10:30N 34°37' E 135°09'4 8.2
2017-Nov-11 10:00N 34°41' E 135°11'0 0.0
2017-Nov-11 09:26N 34°41' E 135°11'0 0.0
2017-Nov-11 08:56N 34°41' E 135°11'3 6.3
2017-Nov-11 08:30N 34°38' E 135°11'3 7.0
2017-Nov-11 08:00N 34°37' E 135°07'510.9
2017-Nov-11 07:30N 34°37' E 135°13'4 8.4
2017-Nov-11 07:00N 34°41' E 135°11'0 0.0
2017-Nov-11 06:23N 34°41' E 135°11'0 0.0
2017-Nov-11 05:59N 34°41' E 135°11'0 0.0
2017-Nov-11 05:29N 34°41' E 135°11'0 0.0
2017-Nov-11 04:58N 34°41' E 135°11'3 6.5
2017-Nov-11 04:30N 34°38' E 135°11'3 5.4
2017-Nov-11 04:00N 34°37' E 135°08'4 8.9
2017-Nov-11 03:30N 34°37' E 135°13'4 7.8
2017-Nov-11 03:01N 34°41' E 135°11'0 0.0
2017-Nov-11 02:28N 34°41' E 135°11'0 0.0
2017-Nov-11 01:58N 34°41' E 135°11'0 0.0
2017-Nov-11 01:28N 34°41' E 135°11'0 0.0
2017-Nov-11 00:58N 34°41' E 135°11'0 0.0
2017-Nov-11 00:28N 34°41' E 135°11'0 0.0
2017-Nov-10 23:52N 34°41' E 135°11'0 0.0
2017-Nov-10 23:28N 34°41' E 135°11'0 0.0
2017-Nov-10 22:58N 34°41' E 135°11'0 0.0
2017-Nov-10 22:28N 34°41' E 135°11'0 0.0
2017-Nov-10 21:52N 34°41' E 135°11'0 0.0
2017-Nov-10 21:16N 34°41' E 135°11'0 0.0
2017-Nov-10 20:58N 34°41' E 135°11'0 0.0
2017-Nov-10 20:28N 34°41' E 135°11'0 0.0
2017-Nov-10 19:52N 34°41' E 135°11'0 0.0
2017-Nov-10 19:28N 34°41' E 135°11'0 0.0
2017-Nov-10 18:58N 34°41' E 135°11'0 0.0
2017-Nov-10 18:28N 34°41' E 135°11'0 0.0
2017-Nov-10 17:58N 34°41' E 135°11'0 0.0
2017-Nov-10 17:28N 34°41' E 135°11'0 0.0
2017-Nov-10 16:58N 34°41' E 135°11'0 0.0
2017-Nov-10 16:28N 34°41' E 135°11'0 0.0
2017-Nov-10 15:58N 34°41' E 135°11'0 0.0
2017-Nov-10 15:28N 34°41' E 135°11'0 0.0
2017-Nov-10 14:58N 34°41' E 135°11'0 0.0
2017-Nov-10 14:28N 34°41' E 135°11'0 0.0
2017-Nov-10 13:58N 34°41' E 135°11'0 0.0
2017-Nov-10 13:16N 34°41' E 135°11'0 0.0
2017-Nov-10 12:52N 34°41' E 135°11'0 0.0
2017-Nov-10 12:28N 34°41' E 135°11'1 2.7
2017-Nov-10 12:00N 34°40' E 135°11'713.3
2017-Nov-10 11:30N 34°35' E 135°06'510.6
2017-Nov-10 10:59N 34°37' E 135°00'612.5
2017-Nov-10 10:30N 34°37' E 135°08'5 9.7
2017-Nov-10 10:00N 34°41' E 135°11'0 0.0
2017-Nov-10 09:29N 34°41' E 135°11'1 2.2
2017-Nov-10 09:00N 34°40' E 135°12'4 7.6
2017-Nov-10 08:30N 34°38' E 135°08'4 8.6
2017-Nov-10 08:00N 34°41' E 135°11'0 0.0
2017-Nov-10 07:29N 34°41' E 135°11'0 0.0
2017-Nov-10 06:59N 34°41' E 135°11'0 0.0
2017-Nov-10 06:29N 34°41' E 135°11'0 0.0
2017-Nov-10 05:53N 34°41' E 135°11'0 0.0
2017-Nov-10 05:23N 34°41' E 135°11'0 0.0
2017-Nov-10 04:59N 34°41' E 135°11'3 5.5
2017-Nov-10 04:30N 34°38' E 135°11'3 5.8
2017-Nov-10 03:59N 34°37' E 135°07'5 9.5
2017-Nov-10 03:30N 34°37' E 135°13'4 7.3
2017-Nov-10 03:00N 34°41' E 135°11'0 0.0
2017-Nov-10 02:30N 34°41' E 135°11'0 0.0
2017-Nov-10 02:00N 34°41' E 135°11'0 0.0
2017-Nov-10 01:30N 34°41' E 135°11'0 0.0
2017-Nov-10 01:00N 34°41' E 135°11'0 0.0
2017-Nov-10 00:30N 34°41' E 135°11'  
Track history (hours):
 
Tides and Currents Weather Stations Pressure Air Temp Water Temp Dewpoint Dewpoint Depression Visibility Wind Speed Wind Dir Waves Ship Positions

Luminous Kobe-2

Last reported at 2017-Nov-20 00:19 UTC. Time now 2017-Nov-22 14:43 UTC.
Position N 34°41' E 135°11'.

Length 105 m; draft 4.4 m.

Type: Passenger vessel. MMSI: 431000469.

Date/timePositionNaut miles runAvg speedWind from/ knotsBaromVisibWave heightAir tempDewpointWater temp
2017-Nov-20 00:19N 34°41' E 135°11'0 0.0
2017-Nov-19 23:55N 34°41' E 135°11'0 0.0
2017-Nov-19 23:25N 34°41' E 135°11'0 0.0
2017-Nov-19 22:37N 34°41' E 135°11'0 0.0
2017-Nov-19 22:25N 34°41' E 135°11'0 0.0
2017-Nov-19 21:55N 34°41' E 135°11'0 0.0
2017-Nov-19 21:25N 34°41' E 135°11'0 0.0
2017-Nov-19 20:55N 34°41' E 135°11'0 0.0
2017-Nov-19 20:25N 34°41' E 135°11'0 0.0
2017-Nov-19 19:55N 34°41' E 135°11'0 0.0
2017-Nov-19 19:25N 34°41' E 135°11'0 0.0
2017-Nov-19 18:43N 34°41' E 135°11'0 0.0
2017-Nov-19 18:25N 34°41' E 135°11'0 0.0
2017-Nov-19 17:55N 34°41' E 135°11'0 0.0
2017-Nov-19 17:25N 34°41' E 135°11'0 0.0
2017-Nov-19 16:55N 34°41' E 135°11'0 0.0
2017-Nov-19 16:25N 34°41' E 135°11'0 0.0
2017-Nov-19 15:55N 34°41' E 135°11'0 0.0
2017-Nov-19 15:25N 34°41' E 135°11'0 0.0
2017-Nov-19 14:55N 34°41' E 135°11'0 0.0
2017-Nov-19 14:25N 34°41' E 135°11'0 0.0
2017-Nov-19 13:43N 34°41' E 135°11'0 0.0
2017-Nov-19 13:25N 34°41' E 135°11'0 0.0
2017-Nov-19 12:55N 34°41' E 135°11'0 0.0
2017-Nov-19 12:25N 34°41' E 135°11'1 3.1
2017-Nov-19 12:00N 34°40' E 135°11'714.0
2017-Nov-19 11:30N 34°35' E 135°06'612.4
2017-Nov-19 11:00N 34°37' E 134°59'714.3
2017-Nov-19 10:30N 34°37' E 135°07'510.2
2017-Nov-19 10:00N 34°41' E 135°11'0 0.0
2017-Nov-19 09:25N 34°41' E 135°11'0 0.0
2017-Nov-19 08:57N 34°41' E 135°11'3 5.6
2017-Nov-19 08:30N 34°38' E 135°11'4 7.2
2017-Nov-19 08:00N 34°37' E 135°07'611.5
2017-Nov-19 07:30N 34°37' E 135°14'4 8.3
2017-Nov-19 07:00N 34°41' E 135°11'0 0.0
2017-Nov-19 06:27N 34°41' E 135°11'0 0.0
2017-Nov-19 05:57N 34°41' E 135°11'0 0.0
2017-Nov-19 05:27N 34°41' E 135°11'0 0.0
2017-Nov-19 04:57N 34°41' E 135°11'3 6.1
2017-Nov-19 04:31N 34°38' E 135°11'3 6.8
2017-Nov-19 04:00N 34°37' E 135°08'510.0
2017-Nov-19 03:30N 34°37' E 135°13'4 6.8
2017-Nov-19 02:56N 34°41' E 135°11'0 0.0
2017-Nov-19 02:26N 34°41' E 135°11'0 0.0
2017-Nov-19 01:50N 34°41' E 135°11'0 0.0
2017-Nov-19 01:26N 34°41' E 135°11'0 0.0
2017-Nov-19 00:50N 34°41' E 135°11'0 0.0
2017-Nov-19 00:26N 34°41' E 135°11'0 0.0
2017-Nov-18 23:56N 34°41' E 135°11'0 0.0
2017-Nov-18 23:26N 34°41' E 135°11'0 0.0
2017-Nov-18 22:44N 34°41' E 135°11'0 0.0
2017-Nov-18 22:14N 34°41' E 135°11'0 0.0
2017-Nov-18 21:56N 34°41' E 135°11'0 0.0
2017-Nov-18 21:26N 34°41' E 135°11'0 0.0
2017-Nov-18 20:56N 34°41' E 135°11'0 0.0
2017-Nov-18 20:26N 34°41' E 135°11'0 0.0
2017-Nov-18 19:44N 34°41' E 135°11'0 0.0
2017-Nov-18 19:20N 34°41' E 135°11'0 0.0
2017-Nov-18 18:56N 34°41' E 135°11'0 0.0
2017-Nov-18 18:26N 34°41' E 135°11'0 0.0
2017-Nov-18 17:56N 34°41' E 135°11'0 0.0
2017-Nov-18 17:26N 34°41' E 135°11'0 0.0
2017-Nov-18 16:56N 34°41' E 135°11'0 0.0
2017-Nov-18 16:26N 34°41' E 135°11'0 0.0
2017-Nov-18 15:50N 34°41' E 135°11'0 0.0
2017-Nov-18 15:26N 34°41' E 135°11'0 0.0
2017-Nov-18 14:50N 34°41' E 135°11'0 0.0
2017-Nov-18 14:26N 34°41' E 135°11'0 0.0
2017-Nov-18 13:56N 34°41' E 135°11'0 0.0
2017-Nov-18 13:20N 34°41' E 135°11'0 0.0
2017-Nov-18 12:56N 34°41' E 135°11'0 0.0
2017-Nov-18 12:26N 34°41' E 135°11'1 2.3
2017-Nov-18 12:00N 34°40' E 135°12'611.3
2017-Nov-18 11:30N 34°36' E 135°07'612.1
2017-Nov-18 11:00N 34°37' E 134°59'713.2
2017-Nov-18 10:30N 34°37' E 135°07'5 9.7
2017-Nov-18 09:59N 34°41' E 135°11'0 0.0
2017-Nov-18 09:31N 34°41' E 135°11'0 0.0
2017-Nov-18 09:00N 34°41' E 135°11'3 5.4
2017-Nov-18 08:31N 34°38' E 135°11'4 7.4
2017-Nov-18 08:00N 34°37' E 135°06'611.5
2017-Nov-18 07:31N 34°37' E 135°13'4 8.0
2017-Nov-18 07:00N 34°41' E 135°11'0 0.0
2017-Nov-18 06:20N 34°41' E 135°11'0 0.0
2017-Nov-18 05:56N 34°41' E 135°11'0 0.0
2017-Nov-18 05:26N 34°41' E 135°11'0 0.0
2017-Nov-18 04:56N 34°41' E 135°11'2 5.6
2017-Nov-18 04:30N 34°38' E 135°11'4 7.2
2017-Nov-18 04:00N 34°37' E 135°07'4 8.1
2017-Nov-18 03:30N 34°37' E 135°12'3 6.8
2017-Nov-18 03:00N 34°41' E 135°11'0 0.0
2017-Nov-18 02:25N 34°41' E 135°11'0 0.0
2017-Nov-18 01:49N 34°41' E 135°11'0 0.0
2017-Nov-18 01:25N 34°41' E 135°11'0 0.0
2017-Nov-18 00:55N 34°41' E 135°11'0 0.0
2017-Nov-18 00:25N 34°41' E 135°11'0 0.0
2017-Nov-17 23:55N 34°41' E 135°11'0 0.0
2017-Nov-17 23:19N 34°41' E 135°11'0 0.0
2017-Nov-17 22:55N 34°41' E 135°11'0 0.0
2017-Nov-17 22:25N 34°41' E 135°11'0 0.0
2017-Nov-17 21:37N 34°41' E 135°11'0 0.0
2017-Nov-17 21:19N 34°41' E 135°11'0 0.0
2017-Nov-17 20:55N 34°41' E 135°11'0 0.0
2017-Nov-17 20:19N 34°41' E 135°11'0 0.0
2017-Nov-17 19:55N 34°41' E 135°11'0 0.0
2017-Nov-17 19:25N 34°41' E 135°11'0 0.0
2017-Nov-17 18:55N 34°41' E 135°11'0 0.0
2017-Nov-17 18:25N 34°41' E 135°11'0 0.0
2017-Nov-17 17:55N 34°41' E 135°11'0 0.0
2017-Nov-17 17:25N 34°41' E 135°11'0 0.0
2017-Nov-17 16:55N 34°41' E 135°11'0 0.0
2017-Nov-17 16:25N 34°41' E 135°11'0 0.0
2017-Nov-17 15:55N 34°41' E 135°11'0 0.0
2017-Nov-17 15:25N 34°41' E 135°11'0 0.0
2017-Nov-17 14:55N 34°41' E 135°11'0 0.0
2017-Nov-17 14:25N 34°41' E 135°11'0 0.0
2017-Nov-17 13:55N 34°41' E 135°11'0 0.0
2017-Nov-17 13:25N 34°41' E 135°11'0 0.0
2017-Nov-17 12:55N 34°41' E 135°11'0 0.0
2017-Nov-17 12:16N 34°41' E 135°11'1 3.9
2017-Nov-17 12:00N 34°40' E 135°11'612.4
2017-Nov-17 11:30N 34°35' E 135°06'712.5
2017-Nov-17 10:59N 34°37' E 134°59'715.2
2017-Nov-17 10:30N 34°37' E 135°07'510.1
2017-Nov-17 10:00N 34°41' E 135°11'0 0.0
2017-Nov-17 09:19N 34°41' E 135°11'1 3.5
2017-Nov-17 09:00N 34°40' E 135°11'3 6.8
2017-Nov-17 08:30N 34°38' E 135°08'4 8.2
2017-Nov-17 08:00N 34°41' E 135°11'0 0.0
2017-Nov-17 07:26N 34°41' E 135°11'0 0.0
2017-Nov-17 06:44N 34°41' E 135°11'0 0.0
2017-Nov-17 06:26N 34°41' E 135°11'0 0.0
2017-Nov-17 05:44N 34°41' E 135°11'0 0.0
2017-Nov-17 05:26N 34°41' E 135°11'0 0.0
2017-Nov-17 04:56N 34°41' E 135°11'3 6.3
2017-Nov-17 04:30N 34°38' E 135°11'4 7.0
2017-Nov-17 04:00N 34°36' E 135°07'510.5
2017-Nov-17 03:31N 34°37' E 135°13'4 7.8
2017-Nov-17 02:59N 34°41' E 135°11'0 0.0
2017-Nov-17 02:28N 34°41' E 135°11'0 0.0
2017-Nov-17 01:58N 34°41' E 135°11'0 0.0
2017-Nov-17 01:28N 34°41' E 135°11'0 0.0
2017-Nov-17 00:52N 34°41' E 135°11'0 0.0
2017-Nov-17 00:22N 34°41' E 135°11'0 0.0
2017-Nov-16 23:58N 34°41' E 135°11'0 0.0
2017-Nov-16 23:28N 34°41' E 135°11'0 0.0
2017-Nov-16 22:52N 34°41' E 135°11'0 0.0
2017-Nov-16 22:28N 34°41' E 135°11'0 0.0
2017-Nov-16 21:58N 34°41' E 135°11'0 0.0
2017-Nov-16 21:28N 34°41' E 135°11'0 0.0
2017-Nov-16 20:58N 34°41' E 135°11'0 0.0
2017-Nov-16 20:28N 34°41' E 135°11'0 0.0
2017-Nov-16 19:52N 34°41' E 135°11'0 0.0
2017-Nov-16 19:28N 34°41' E 135°11'0 0.0
2017-Nov-16 18:58N 34°41' E 135°11'0 0.0
2017-Nov-16 18:28N 34°41' E 135°11'0 0.0
2017-Nov-16 17:58N 34°41' E 135°11'0 0.0
2017-Nov-16 17:28N 34°41' E 135°11'0 0.0
2017-Nov-16 16:46N 34°41' E 135°11'0 0.0
2017-Nov-16 16:22N 34°41' E 135°11'0 0.0
2017-Nov-16 15:58N 34°41' E 135°11'0 0.0
2017-Nov-16 15:28N 34°41' E 135°11'0 0.0
2017-Nov-16 14:40N 34°41' E 135°11'0 0.0
2017-Nov-16 14:28N 34°41' E 135°11'0 0.0
2017-Nov-16 13:52N 34°41' E 135°11'0 0.0
2017-Nov-16 13:28N 34°41' E 135°11'0 0.0
2017-Nov-16 12:58N 34°41' E 135°11'0 0.0
2017-Nov-16 12:28N 34°41' E 135°11'1 2.3
2017-Nov-16 12:00N 34°40' E 135°11'612.5
2017-Nov-16 11:30N 34°35' E 135°06'612.3
2017-Nov-16 11:00N 34°37' E 134°59'714.0
2017-Nov-16 10:30N 34°37' E 135°07'510.0
2017-Nov-16 10:00N 34°41' E 135°11'0 0.0
2017-Nov-16 09:30N 34°41' E 135°11'1 2.2
2017-Nov-16 09:00N 34°40' E 135°11'4 7.8
2017-Nov-16 08:30N 34°38' E 135°07'5 9.1
2017-Nov-16 08:00N 34°41' E 135°11'0 0.0
2017-Nov-16 07:29N 34°41' E 135°11'0 0.0
2017-Nov-16 06:59N 34°41' E 135°11'0 0.0
2017-Nov-16 06:29N 34°41' E 135°11'0 0.0
2017-Nov-16 05:59N 34°41' E 135°11'0 0.0
2017-Nov-16 05:17N 34°41' E 135°11'0 0.0
2017-Nov-16 04:59N 34°41' E 135°11'3 5.7
2017-Nov-16 04:30N 34°38' E 135°11'3 6.0
2017-Nov-16 04:00N 34°37' E 135°08'5 9.2
2017-Nov-16 03:30N 34°37' E 135°13'4 8.0
2017-Nov-16 03:00N 34°41' E 135°11'0 0.0
2017-Nov-16 02:25N 34°41' E 135°11'0 0.0
2017-Nov-16 01:55N 34°41' E 135°11'0 0.0
2017-Nov-16 01:25N 34°41' E 135°11'0 0.0
2017-Nov-16 00:55N 34°41' E 135°11'0 0.0
2017-Nov-16 00:25N 34°41' E 135°11'0 0.0
2017-Nov-15 23:55N 34°41' E 135°11'0 0.0
2017-Nov-15 23:25N 34°41' E 135°11'0 0.0
2017-Nov-15 22:55N 34°41' E 135°11'0 0.0
2017-Nov-15 22:25N 34°41' E 135°11'0 0.0
2017-Nov-15 21:49N 34°41' E 135°11'0 0.0
2017-Nov-15 21:25N 34°41' E 135°11'0 0.0
2017-Nov-15 20:49N 34°41' E 135°11'0 0.0
2017-Nov-15 20:25N 34°41' E 135°11'0 0.0
2017-Nov-15 19:49N 34°41' E 135°11'0 0.0
2017-Nov-15 19:25N 34°41' E 135°11'0 0.0
2017-Nov-15 18:55N 34°41' E 135°11'0 0.0
2017-Nov-15 18:25N 34°41' E 135°11'0 0.0
2017-Nov-15 17:55N 34°41' E 135°11'0 0.0
2017-Nov-15 17:25N 34°41' E 135°11'0 0.0
2017-Nov-15 16:55N 34°41' E 135°11'0 0.0
2017-Nov-15 16:25N 34°41' E 135°11'0 0.0
2017-Nov-15 15:55N 34°41' E 135°11'0 0.0
2017-Nov-15 15:25N 34°41' E 135°11'0 0.0
2017-Nov-15 14:49N 34°41' E 135°11'0 0.0
2017-Nov-15 14:25N 34°41' E 135°11'0 0.0
2017-Nov-15 13:55N 34°41' E 135°11'0 0.0
2017-Nov-15 13:25N 34°41' E 135°11'0 0.0
2017-Nov-15 12:55N 34°41' E 135°11'0 0.0
2017-Nov-15 12:25N 34°41' E 135°11'1 3.2
2017-Nov-15 12:00N 34°39' E 135°11'612.0
2017-Nov-15 11:30N 34°35' E 135°06'610.2
2017-Nov-15 10:57N 34°38' E 134°60'614.2
2017-Nov-15 10:31N 34°37' E 135°07'510.1
2017-Nov-15 10:00N 34°41' E 135°11'0 0.0
2017-Nov-15 09:30N 34°41' E 135°11'1 2.0
2017-Nov-15 09:00N 34°40' E 135°12'4 7.9
2017-Nov-15 08:30N 34°38' E 135°08'4 8.8
2017-Nov-15 08:00N 34°41' E 135°11'0 0.0
2017-Nov-15 07:17N 34°41' E 135°11'0 0.0
2017-Nov-15 06:59N 34°41' E 135°11'0 0.0
2017-Nov-15 06:29N 34°41' E 135°11'0 0.0
2017-Nov-15 05:59N 34°41' E 135°11'0 0.0
2017-Nov-15 05:29N 34°41' E 135°11'0 0.0
2017-Nov-15 04:59N 34°41' E 135°11'3 5.6
2017-Nov-15 04:30N 34°38' E 135°11'1 2.8
2017-Nov-15 04:00N 34°37' E 135°10'3 5.6
2017-Nov-15 03:30N 34°37' E 135°14'4 7.2
2017-Nov-15 02:58N 34°41' E 135°11'0 0.0
2017-Nov-15 02:22N 34°41' E 135°11'0 0.0
2017-Nov-15 01:58N 34°41' E 135°11'0 0.0
2017-Nov-15 01:28N 34°41' E 135°11'0 0.0
2017-Nov-15 00:46N 34°41' E 135°11'0 0.0
2017-Nov-15 00:28N 34°41' E 135°11'0 0.0
2017-Nov-14 23:58N 34°41' E 135°11'0 0.0
2017-Nov-14 23:28N 34°41' E 135°11'0 0.0
2017-Nov-14 22:58N 34°41' E 135°11'0 0.0
2017-Nov-14 22:28N 34°41' E 135°11'0 0.0
2017-Nov-14 21:58N 34°41' E 135°11'0 0.0
2017-Nov-14 21:22N 34°41' E 135°11'0 0.0
2017-Nov-14 20:52N 34°41' E 135°11'0 0.0
2017-Nov-14 20:28N 34°41' E 135°11'0 0.0
2017-Nov-14 19:58N 34°41' E 135°11'0 0.0
2017-Nov-14 19:22N 34°41' E 135°11'0 0.0
2017-Nov-14 18:58N 34°41' E 135°11'0 0.0
2017-Nov-14 18:28N 34°41' E 135°11'0 0.0
2017-Nov-14 17:52N 34°41' E 135°11'0 0.0
2017-Nov-14 17:28N 34°41' E 135°11'0 0.0
2017-Nov-14 16:52N 34°41' E 135°11'0 0.0
2017-Nov-14 16:28N 34°41' E 135°11'0 0.0
2017-Nov-14 15:58N 34°41' E 135°11'0 0.0
2017-Nov-14 15:28N 34°41' E 135°11'0 0.0
2017-Nov-14 14:58N 34°41' E 135°11'0 0.0
2017-Nov-14 14:16N 34°41' E 135°11'0 0.0
2017-Nov-14 13:58N 34°41' E 135°11'0 0.0
2017-Nov-14 13:28N 34°41' E 135°11'0 0.0
2017-Nov-14 12:52N 34°41' E 135°11'0 0.0
2017-Nov-14 12:28N 34°41' E 135°11'1 2.3
2017-Nov-14 12:00N 34°40' E 135°11'612.0
2017-Nov-14 11:30N 34°35' E 135°06'713.3
2017-Nov-14 11:00N 34°38' E 134°59'714.4
2017-Nov-14 10:30N 34°37' E 135°07'5 9.9
2017-Nov-14 10:00N 34°41' E 135°11'0 0.0
2017-Nov-14 09:28N 34°41' E 135°11'1 2.4
2017-Nov-14 09:00N 34°40' E 135°11'4 7.7
2017-Nov-14 08:30N 34°38' E 135°08'4 9.0
2017-Nov-14 08:00N 34°41' E 135°11'0 0.0
2017-Nov-14 07:29N 34°41' E 135°11'0 0.0
2017-Nov-14 06:59N 34°41' E 135°11'0 0.0
2017-Nov-14 06:29N 34°41' E 135°11'0 0.0
2017-Nov-14 05:59N 34°41' E 135°11'0 0.0
2017-Nov-14 05:29N 34°41' E 135°11'0 0.0
2017-Nov-14 04:59N 34°41' E 135°11'3 5.8
2017-Nov-14 04:30N 34°38' E 135°11'4 8.4
2017-Nov-14 04:00N 34°37' E 135°06'612.2
2017-Nov-14 03:30N 34°37' E 135°13'4 8.3
2017-Nov-14 03:00N 34°41' E 135°11'0 0.0
2017-Nov-14 02:26N 34°41' E 135°11'0 0.0
2017-Nov-14 01:44N 34°41' E 135°11'0 0.0
2017-Nov-14 01:26N 34°41' E 135°11'0 0.0
2017-Nov-14 00:56N 34°41' E 135°11'0 0.0
2017-Nov-14 00:26N 34°41' E 135°11'0 0.0
2017-Nov-13 23:56N 34°41' E 135°11'0 0.0
2017-Nov-13 23:26N 34°41' E 135°11'0 0.0
2017-Nov-13 22:44N 34°41' E 135°11'0 0.0
2017-Nov-13 22:26N 34°41' E 135°11'0 0.0
2017-Nov-13 21:56N 34°41' E 135°11'0 0.0
2017-Nov-13 01:56N 34°41' E 135°11'0 0.0
2017-Nov-13 01:26N 34°41' E 135°11'0 0.0
2017-Nov-13 00:32N 34°41' E 135°11'0 0.1
2017-Nov-13 00:26N 34°41' E 135°11'0 0.0
2017-Nov-12 23:50N 34°41' E 135°11'0 0.0
2017-Nov-12 23:26N 34°41' E 135°11'0 0.0
2017-Nov-12 22:50N 34°41' E 135°11'0 0.0
2017-Nov-12 22:26N 34°41' E 135°11'0 0.0
2017-Nov-12 21:56N 34°41' E 135°11'0 0.0
2017-Nov-12 21:20N 34°41' E 135°11'0 0.0
2017-Nov-12 20:56N 34°41' E 135°11'0 0.0
2017-Nov-12 20:26N 34°41' E 135°11'0 0.0
2017-Nov-12 19:50N 34°41' E 135°11'0 0.0
2017-Nov-12 19:26N 34°41' E 135°11'0 0.0
2017-Nov-12 18:56N 34°41' E 135°11'0 0.0
2017-Nov-12 18:20N 34°41' E 135°11'0 0.0
2017-Nov-12 17:56N 34°41' E 135°11'0 0.0
2017-Nov-12 17:26N 34°41' E 135°11'0 0.0
2017-Nov-12 16:56N 34°41' E 135°11'0 0.0
2017-Nov-12 16:26N 34°41' E 135°11'0 0.0
2017-Nov-12 15:56N 34°41' E 135°11'0 0.0
2017-Nov-12 15:26N 34°41' E 135°11'0 0.0
2017-Nov-12 14:56N 34°41' E 135°11'0 0.0
2017-Nov-12 14:26N 34°41' E 135°11'0 0.0
2017-Nov-12 13:56N 34°41' E 135°11'0 0.0
2017-Nov-12 13:14N 34°41' E 135°11'0 0.0
2017-Nov-12 12:56N 34°41' E 135°11'0 0.0
2017-Nov-12 12:26N 34°41' E 135°11'1 2.1
2017-Nov-12 12:00N 34°40' E 135°11'611.3
2017-Nov-12 11:31N 34°36' E 135°07'612.7
2017-Nov-12 11:00N 34°38' E 134°59'713.7
2017-Nov-12 10:30N 34°37' E 135°07'510.1
2017-Nov-12 10:00N 34°41' E 135°11'0 0.0
2017-Nov-12 09:28N 34°41' E 135°11'0 0.0
2017-Nov-12 08:58N 34°41' E 135°11'3 6.3
2017-Nov-12 08:30N 34°38' E 135°11'3 6.6
2017-Nov-12 08:00N 34°37' E 135°07'510.4
2017-Nov-12 07:30N 34°37' E 135°13'4 7.8
2017-Nov-12 07:00N 34°41' E 135°11'0 0.0
2017-Nov-12 06:19N 34°41' E 135°11'0 0.0
2017-Nov-12 05:55N 34°41' E 135°11'0 0.0
2017-Nov-12 05:19N 34°41' E 135°11'0 0.0
2017-Nov-12 04:55N 34°41' E 135°11'3 6.2
2017-Nov-12 04:30N 34°38' E 135°11'4 7.6
2017-Nov-12 04:00N 34°37' E 135°07'5 9.8
2017-Nov-12 03:30N 34°37' E 135°13'4 7.5
2017-Nov-12 03:00N 34°41' E 135°11'0 0.0
2017-Nov-12 02:21N 34°41' E 135°11'0 0.0
2017-Nov-12 01:57N 34°41' E 135°11'0 0.0
2017-Nov-12 01:27N 34°41' E 135°11'0 0.0
2017-Nov-12 00:51N 34°41' E 135°11'0 0.0
2017-Nov-12 00:27N 34°41' E 135°11'0 0.0
2017-Nov-11 23:57N 34°41' E 135°11'0 0.0
2017-Nov-11 23:27N 34°41' E 135°11'0 0.0
2017-Nov-11 22:57N 34°41' E 135°11'0 0.0
2017-Nov-11 22:27N 34°41' E 135°11'0 0.0
2017-Nov-11 21:51N 34°41' E 135°11'0 0.0
2017-Nov-11 21:15N 34°41' E 135°11'0 0.0
2017-Nov-11 20:57N 34°41' E 135°11'0 0.0
2017-Nov-11 20:27N 34°41' E 135°11'0 0.0
2017-Nov-11 19:57N 34°41' E 135°11'0 0.0
2017-Nov-11 19:27N 34°41' E 135°11'0 0.0
2017-Nov-11 18:57N 34°41' E 135°11'0 0.0
2017-Nov-11 18:27N 34°41' E 135°11'0 0.0
2017-Nov-11 17:57N 34°41' E 135°11'0 0.0
2017-Nov-11 17:15N 34°41' E 135°11'0 0.0
2017-Nov-11 16:51N 34°41' E 135°11'0 0.0
2017-Nov-11 16:21N 34°41' E 135°11'0 0.0
2017-Nov-11 15:57N 34°41' E 135°11'0 0.0
2017-Nov-11 15:27N 34°41' E 135°11'0 0.0
2017-Nov-11 14:51N 34°41' E 135°11'0 0.0
2017-Nov-11 14:21N 34°41' E 135°11'0 0.0
2017-Nov-11 13:51N 34°41' E 135°11'0 0.0
2017-Nov-11 13:27N 34°41' E 135°11'0 0.0
2017-Nov-11 12:57N 34°41' E 135°11'0 0.0
2017-Nov-11 12:21N 34°41' E 135°11'1 3.3
2017-Nov-11 12:00N 34°40' E 135°11'714.5
2017-Nov-11 11:30N 34°35' E 135°05'4 8.7
2017-Nov-11 11:00N 34°37' E 135°01'612.5
2017-Nov-11 10:30N 34°37' E 135°09'4 8.2
2017-Nov-11 10:00N 34°41' E 135°11'0 0.0
2017-Nov-11 09:26N 34°41' E 135°11'0 0.0
2017-Nov-11 08:56N 34°41' E 135°11'3 6.3
2017-Nov-11 08:30N 34°38' E 135°11'3 7.0
2017-Nov-11 08:00N 34°37' E 135°07'510.9
2017-Nov-11 07:30N 34°37' E 135°13'4 8.4
2017-Nov-11 07:00N 34°41' E 135°11'0 0.0
2017-Nov-11 06:23N 34°41' E 135°11'0 0.0
2017-Nov-11 05:59N 34°41' E 135°11'0 0.0
2017-Nov-11 05:29N 34°41' E 135°11'0 0.0
2017-Nov-11 04:58N 34°41' E 135°11'3 6.5
2017-Nov-11 04:30N 34°38' E 135°11'3 5.4
2017-Nov-11 04:00N 34°37' E 135°08'4 8.9
2017-Nov-11 03:30N 34°37' E 135°13'4 7.8
2017-Nov-11 03:01N 34°41' E 135°11'0 0.0
2017-Nov-11 02:28N 34°41' E 135°11'0 0.0
2017-Nov-11 01:58N 34°41' E 135°11'0 0.0
2017-Nov-11 01:28N 34°41' E 135°11'0 0.0
2017-Nov-11 00:58N 34°41' E 135°11'0 0.0
2017-Nov-11 00:28N 34°41' E 135°11'0 0.0
2017-Nov-10 23:52N 34°41' E 135°11'0 0.0
2017-Nov-10 23:28N 34°41' E 135°11'0 0.0
2017-Nov-10 22:58N 34°41' E 135°11'0 0.0
2017-Nov-10 22:28N 34°41' E 135°11'0 0.0
2017-Nov-10 21:52N 34°41' E 135°11'0 0.0
2017-Nov-10 21:16N 34°41' E 135°11'0 0.0
2017-Nov-10 20:58N 34°41' E 135°11'0 0.0
2017-Nov-10 20:28N 34°41' E 135°11'0 0.0
2017-Nov-10 19:52N 34°41' E 135°11'0 0.0
2017-Nov-10 19:28N 34°41' E 135°11'0 0.0
2017-Nov-10 18:58N 34°41' E 135°11'0 0.0
2017-Nov-10 18:28N 34°41' E 135°11'0 0.0
2017-Nov-10 17:58N 34°41' E 135°11'0 0.0
2017-Nov-10 17:28N 34°41' E 135°11'0 0.0
2017-Nov-10 16:58N 34°41' E 135°11'0 0.0
2017-Nov-10 16:28N 34°41' E 135°11'0 0.0
2017-Nov-10 15:58N 34°41' E 135°11'0 0.0
2017-Nov-10 15:28N 34°41' E 135°11'0 0.0
2017-Nov-10 14:58N 34°41' E 135°11'0 0.0
2017-Nov-10 14:28N 34°41' E 135°11'0 0.0
2017-Nov-10 13:58N 34°41' E 135°11'0 0.0
2017-Nov-10 13:16N 34°41' E 135°11'0 0.0
2017-Nov-10 12:52N 34°41' E 135°11'0 0.0
2017-Nov-10 12:28N 34°41' E 135°11'1 2.7
2017-Nov-10 12:00N 34°40' E 135°11'713.3
2017-Nov-10 11:30N 34°35' E 135°06'510.6
2017-Nov-10 10:59N 34°37' E 135°00'612.5
2017-Nov-10 10:30N 34°37' E 135°08'5 9.7
2017-Nov-10 10:00N 34°41' E 135°11'0 0.0
2017-Nov-10 09:29N 34°41' E 135°11'1 2.2
2017-Nov-10 09:00N 34°40' E 135°12'4 7.6
2017-Nov-10 08:30N 34°38' E 135°08'4 8.6
2017-Nov-10 08:00N 34°41' E 135°11'0 0.0
2017-Nov-10 07:29N 34°41' E 135°11'0 0.0
2017-Nov-10 06:59N 34°41' E 135°11'0 0.0
2017-Nov-10 06:29N 34°41' E 135°11'0 0.0
2017-Nov-10 05:53N 34°41' E 135°11'0 0.0
2017-Nov-10 05:23N 34°41' E 135°11'0 0.0
2017-Nov-10 04:59N 34°41' E 135°11'3 5.5
2017-Nov-10 04:30N 34°38' E 135°11'3 5.8
2017-Nov-10 03:59N 34°37' E 135°07'5 9.5
2017-Nov-10 03:30N 34°37' E 135°13'4 7.3
2017-Nov-10 03:00N 34°41' E 135°11'0 0.0
2017-Nov-10 02:30N 34°41' E 135°11'0 0.0
2017-Nov-10 02:00N 34°41' E 135°11'0 0.0
2017-Nov-10 01:30N 34°41' E 135°11'0 0.0
2017-Nov-10 01:00N 34°41' E 135°11'0 0.0
2017-Nov-10 00:30N 34°41' E 135°11'  

Dump ship's entire track history